Terminal Aerodrome Forecast
Issued by NWS

Home | Current Version | Previous Version | Graphics & Text | Print | Product List | Glossary Off
Versions: 1 2 3 4 5 6 7 8 9 10 11 12 13 14 15 16 17 18 19 20 21 22 23 24 25 26 27 28 29 30 31 32

000
FTUS43 KDDC 280545
TAFHYS
TAF
KHYS 280545Z 2806/0106 16008KT P6SM BKN020
     FM281300 17010KT 4SM -SN OVC015
     FM281800 16010KT 5SM -SN BR OVC020
     FM010000 15005KT P6SM OVC010=

USA.gov is the U.S. government's official web portal to all federal, state and local government web resources and services.